sensor_id;sensor_type;location;lat;lon;timestamp;P1;durP1;ratioP1;P2;durP2;ratioP2
8042;SDS011;4064;48.132;11.366;2024-01-15T00:01:16;9.87;;;6.90;;
8042;SDS011;4064;48.132;11.366;2024-01-15T00:03:42;11.10;;;6.40;;
8042;SDS011;4064;48.132;11.366;2024-01-15T00:06:07;7.30;;;6.13;;
8042;SDS011;4064;48.132;11.366;2024-01-15T00:08:33;7.60;;;5.90;;
8042;SDS011;4064;48.132;11.366;2024-01-15T00:10:59;10.13;;;6.57;;
8042;SDS011;4064;48.132;11.366;2024-01-15T00:13:24;9.13;;;5.50;;
8042;SDS011;4064;48.132;11.366;2024-01-15T00:15:50;9.53;;;7.00;;
8042;SDS011;4064;48.132;11.366;2024-01-15T00:18:16;15.20;;;9.33;;
8042;SDS011;4064;48.132;11.366;2024-01-15T00:20:41;8.80;;;6.73;;
8042;SDS011;4064;48.132;11.366;2024-01-15T00:23:07;11.20;;;6.50;;
8042;SDS011;4064;48.132;11.366;2024-01-15T00:25:32;10.63;;;7.47;;
8042;SDS011;4064;48.132;11.366;2024-01-15T00:27:58;10.00;;;5.87;;
8042;SDS011;4064;48.132;11.366;2024-01-15T00:30:24;11.67;;;7.30;;
8042;SDS011;4064;48.132;11.366;2024-01-15T00:32:49;10.73;;;6.30;;
8042;SDS011;4064;48.132;11.366;2024-01-15T00:35:15;10.83;;;6.40;;
8042;SDS011;4064;48.132;11.366;2024-01-15T00:37:41;10.57;;;6.40;;
8042;SDS011;4064;48.132;11.366;2024-01-15T00:40:07;9.68;;;6.80;;
8042;SDS011;4064;48.132;11.366;2024-01-15T00:47:43;9.27;;;6.07;;
8042;SDS011;4064;48.132;11.366;2024-01-15T00:50:09;13.17;;;7.30;;
8042;SDS011;4064;48.132;11.366;2024-01-15T00:52:35;10.57;;;7.53;;
8042;SDS011;4064;48.132;11.366;2024-01-15T00:55:00;10.60;;;6.70;;
8042;SDS011;4064;48.132;11.366;2024-01-15T00:57:26;10.07;;;7.07;;
8042;SDS011;4064;48.132;11.366;2024-01-15T00:59:52;10.80;;;7.67;;
8042;SDS011;4064;48.132;11.366;2024-01-15T01:02:17;9.33;;;7.70;;
8042;SDS011;4064;48.132;11.366;2024-01-15T01:04:43;11.20;;;7.87;;
8042;SDS011;4064;48.132;11.366;2024-01-15T01:07:09;11.83;;;9.10;;
8042;SDS011;4064;48.132;11.366;2024-01-15T01:09:34;13.30;;;9.57;;
8042;SDS011;4064;48.132;11.366;2024-01-15T01:12:00;13.63;;;8.20;;
8042;SDS011;4064;48.132;11.366;2024-01-15T01:14:26;12.60;;;10.03;;
8042;SDS011;4064;48.132;11.366;2024-01-15T01:16:51;12.33;;;9.10;;
8042;SDS011;4064;48.132;11.366;2024-01-15T01:19:17;16.13;;;10.10;;
8042;SDS011;4064;48.132;11.366;2024-01-15T01:21:43;12.07;;;8.90;;
8042;SDS011;4064;48.132;11.366;2024-01-15T01:24:08;14.40;;;8.90;;
8042;SDS011;4064;48.132;11.366;2024-01-15T01:26:34;17.50;;;11.10;;
8042;SDS011;4064;48.132;11.366;2024-01-15T01:29:00;13.97;;;9.60;;
8042;SDS011;4064;48.132;11.366;2024-01-15T01:31:25;14.13;;;9.57;;
8042;SDS011;4064;48.132;11.366;2024-01-15T01:33:51;13.60;;;8.63;;
8042;SDS011;4064;48.132;11.366;2024-01-15T01:36:17;14.07;;;9.87;;
8042;SDS011;4064;48.132;11.366;2024-01-15T01:38:42;15.60;;;8.50;;
8042;SDS011;4064;48.132;11.366;2024-01-15T01:41:08;16.40;;;10.07;;
8042;SDS011;4064;48.132;11.366;2024-01-15T01:43:34;13.30;;;9.53;;
8042;SDS011;4064;48.132;11.366;2024-01-15T01:46:00;13.80;;;9.73;;
8042;SDS011;4064;48.132;11.366;2024-01-15T01:48:26;17.25;;;10.05;;
8042;SDS011;4064;48.132;11.366;2024-01-15T01:50:56;13.85;;;8.10;;
8042;SDS011;4064;48.132;11.366;2024-01-15T01:53:25;15.95;;;10.27;;
8042;SDS011;4064;48.132;11.366;2024-01-15T01:55:51;10.60;;;8.85;;
8042;SDS011;4064;48.132;11.366;2024-01-15T01:58:18;10.98;;;7.05;;
8042;SDS011;4064;48.132;11.366;2024-01-15T02:00:45;16.13;;;8.75;;
8042;SDS011;4064;48.132;11.366;2024-01-15T02:03:12;16.67;;;9.85;;
8042;SDS011;4064;48.132;11.366;2024-01-15T02:05:38;14.27;;;8.67;;
8042;SDS011;4064;48.132;11.366;2024-01-15T02:08:05;13.73;;;7.57;;
8042;SDS011;4064;48.132;11.366;2024-01-15T02:10:31;14.18;;;10.20;;
8042;SDS011;4064;48.132;11.366;2024-01-15T02:12:57;12.98;;;8.85;;
8042;SDS011;4064;48.132;11.366;2024-01-15T02:15:23;13.93;;;9.00;;
8042;SDS011;4064;48.132;11.366;2024-01-15T02:17:58;16.97;;;8.93;;
8042;SDS011;4064;48.132;11.366;2024-01-15T02:20:26;13.82;;;9.35;;
8042;SDS011;4064;48.132;11.366;2024-01-15T02:22:51;13.20;;;8.57;;
8042;SDS011;4064;48.132;11.366;2024-01-15T02:25:18;14.53;;;8.83;;
8042;SDS011;4064;48.132;11.366;2024-01-15T02:27:44;14.10;;;9.15;;
8042;SDS011;4064;48.132;11.366;2024-01-15T02:30:13;13.82;;;10.15;;
8042;SDS011;4064;48.132;11.366;2024-01-15T02:32:39;14.98;;;9.02;;
8042;SDS011;4064;48.132;11.366;2024-01-15T02:35:04;9.90;;;7.33;;
8042;SDS011;4064;48.132;11.366;2024-01-15T02:37:30;12.50;;;8.77;;
8042;SDS011;4064;48.132;11.366;2024-01-15T02:39:56;14.93;;;9.00;;
8042;SDS011;4064;48.132;11.366;2024-01-15T02:42:21;12.13;;;9.53;;
8042;SDS011;4064;48.132;11.366;2024-01-15T02:44:48;13.05;;;8.85;;
8042;SDS011;4064;48.132;11.366;2024-01-15T02:47:14;13.63;;;8.40;;
8042;SDS011;4064;48.132;11.366;2024-01-15T02:49:40;15.00;;;8.77;;
8042;SDS011;4064;48.132;11.366;2024-01-15T02:52:06;14.65;;;8.02;;
8042;SDS011;4064;48.132;11.366;2024-01-15T02:54:31;16.33;;;10.87;;
8042;SDS011;4064;48.132;11.366;2024-01-15T02:56:57;14.40;;;9.10;;
8042;SDS011;4064;48.132;11.366;2024-01-15T02:59:23;11.50;;;7.40;;
8042;SDS011;4064;48.132;11.366;2024-01-15T03:01:48;12.67;;;8.23;;
8042;SDS011;4064;48.132;11.366;2024-01-15T03:04:14;12.00;;;8.20;;
8042;SDS011;4064;48.132;11.366;2024-01-15T03:06:39;10.90;;;7.77;;
8042;SDS011;4064;48.132;11.366;2024-01-15T03:09:05;12.40;;;7.73;;
8042;SDS011;4064;48.132;11.366;2024-01-15T03:11:37;9.60;;;7.53;;
8042;SDS011;4064;48.132;11.366;2024-01-15T03:14:04;13.20;;;8.27;;
8042;SDS011;4064;48.132;11.366;2024-01-15T03:16:30;12.20;;;7.73;;
8042;SDS011;4064;48.132;11.366;2024-01-15T03:18:55;15.17;;;9.10;;
8042;SDS011;4064;48.132;11.366;2024-01-15T03:21:21;13.77;;;8.50;;
8042;SDS011;4064;48.132;11.366;2024-01-15T03:23:47;12.23;;;7.47;;
8042;SDS011;4064;48.132;11.366;2024-01-15T03:26:12;14.17;;;8.50;;
8042;SDS011;4064;48.132;11.366;2024-01-15T03:28:38;14.90;;;8.83;;
8042;SDS011;4064;48.132;11.366;2024-01-15T03:31:03;14.57;;;8.30;;
8042;SDS011;4064;48.132;11.366;2024-01-15T03:33:29;9.20;;;6.87;;
8042;SDS011;4064;48.132;11.366;2024-01-15T03:35:55;12.73;;;7.70;;
8042;SDS011;4064;48.132;11.366;2024-01-15T03:38:20;9.83;;;8.00;;
8042;SDS011;4064;48.132;11.366;2024-01-15T03:40:47;12.73;;;8.63;;
8042;SDS011;4064;48.132;11.366;2024-01-15T03:43:13;12.97;;;8.67;;
8042;SDS011;4064;48.132;11.366;2024-01-15T03:45:38;19.57;;;8.67;;
8042;SDS011;4064;48.132;11.366;2024-01-15T03:48:04;12.30;;;8.57;;
8042;SDS011;4064;48.132;11.366;2024-01-15T03:50:30;16.10;;;9.83;;
8042;SDS011;4064;48.132;11.366;2024-01-15T03:52:56;11.80;;;8.30;;
8042;SDS011;4064;48.132;11.366;2024-01-15T03:55:21;10.83;;;7.37;;
8042;SDS011;4064;48.132;11.366;2024-01-15T03:57:47;12.53;;;8.00;;
8042;SDS011;4064;48.132;11.366;2024-01-15T04:00:14;10.87;;;8.03;;
8042;SDS011;4064;48.132;11.366;2024-01-15T04:02:42;11.35;;;7.63;;
8042;SDS011;4064;48.132;11.366;2024-01-15T04:05:09;14.40;;;8.32;;
8042;SDS011;4064;48.132;11.366;2024-01-15T04:07:35;9.83;;;7.50;;
8042;SDS011;4064;48.132;11.366;2024-01-15T04:10:01;11.93;;;8.47;;
8042;SDS011;4064;48.132;11.366;2024-01-15T04:12:26;10.60;;;6.87;;
8042;SDS011;4064;48.132;11.366;2024-01-15T04:14:53;12.18;;;8.48;;
8042;SDS011;4064;48.132;11.366;2024-01-15T04:17:19;13.00;;;7.03;;
8042;SDS011;4064;48.132;11.366;2024-01-15T04:19:46;15.40;;;8.73;;
8042;SDS011;4064;48.132;11.366;2024-01-15T04:22:13;12.27;;;7.57;;
8042;SDS011;4064;48.132;11.366;2024-01-15T04:24:38;12.80;;;7.13;;
8042;SDS011;4064;48.132;11.366;2024-01-15T04:27:05;12.13;;;7.33;;
8042;SDS011;4064;48.132;11.366;2024-01-15T04:29:31;13.30;;;7.40;;
8042;SDS011;4064;48.132;11.366;2024-01-15T04:31:57;9.50;;;6.70;;
8042;SDS011;4064;48.132;11.366;2024-01-15T04:34:23;16.60;;;7.83;;
8042;SDS011;4064;48.132;11.366;2024-01-15T04:36:48;10.43;;;7.07;;
8042;SDS011;4064;48.132;11.366;2024-01-15T04:39:14;11.90;;;7.67;;
8042;SDS011;4064;48.132;11.366;2024-01-15T04:41:40;9.57;;;6.80;;
8042;SDS011;4064;48.132;11.366;2024-01-15T04:44:05;9.90;;;7.50;;
8042;SDS011;4064;48.132;11.366;2024-01-15T04:46:31;11.23;;;6.60;;
8042;SDS011;4064;48.132;11.366;2024-01-15T04:48:57;11.27;;;7.80;;
8042;SDS011;4064;48.132;11.366;2024-01-15T04:51:22;12.73;;;6.13;;
8042;SDS011;4064;48.132;11.366;2024-01-15T04:53:48;9.60;;;5.80;;
8042;SDS011;4064;48.132;11.366;2024-01-15T04:56:14;8.83;;;6.50;;
8042;SDS011;4064;48.132;11.366;2024-01-15T04:58:39;6.43;;;5.80;;
8042;SDS011;4064;48.132;11.366;2024-01-15T05:01:05;7.37;;;5.70;;
8042;SDS011;4064;48.132;11.366;2024-01-15T05:03:32;9.75;;;6.53;;
8042;SDS011;4064;48.132;11.366;2024-01-15T05:05:58;11.83;;;6.70;;
8042;SDS011;4064;48.132;11.366;2024-01-15T05:08:24;10.60;;;6.10;;
8042;SDS011;4064;48.132;11.366;2024-01-15T05:10:49;7.10;;;5.90;;
8042;SDS011;4064;48.132;11.366;2024-01-15T05:13:15;8.60;;;6.40;;
8042;SDS011;4064;48.132;11.366;2024-01-15T05:15:41;8.40;;;6.13;;
8042;SDS011;4064;48.132;11.366;2024-01-15T05:18:06;9.87;;;6.07;;
8042;SDS011;4064;48.132;11.366;2024-01-15T05:20:32;12.07;;;7.57;;
8042;SDS011;4064;48.132;11.366;2024-01-15T05:22:57;10.60;;;6.63;;
8042;SDS011;4064;48.132;11.366;2024-01-15T05:25:23;10.50;;;6.40;;
8042;SDS011;4064;48.132;11.366;2024-01-15T05:27:49;9.97;;;7.07;;
8042;SDS011;4064;48.132;11.366;2024-01-15T05:30:15;10.63;;;8.00;;
8042;SDS011;4064;48.132;11.366;2024-01-15T05:32:41;9.57;;;6.53;;
8042;SDS011;4064;48.132;11.366;2024-01-15T05:35:07;8.20;;;6.37;;
8042;SDS011;4064;48.132;11.366;2024-01-15T05:37:33;8.00;;;5.83;;
8042;SDS011;4064;48.132;11.366;2024-01-15T05:39:58;7.80;;;6.10;;
8042;SDS011;4064;48.132;11.366;2024-01-15T05:42:24;10.50;;;6.20;;
8042;SDS011;4064;48.132;11.366;2024-01-15T05:44:50;8.67;;;7.53;;
8042;SDS011;4064;48.132;11.366;2024-01-15T05:47:15;9.27;;;5.60;;
8042;SDS011;4064;48.132;11.366;2024-01-15T05:49:41;11.50;;;7.60;;
8042;SDS011;4064;48.132;11.366;2024-01-15T05:52:07;9.20;;;5.60;;
8042;SDS011;4064;48.132;11.366;2024-01-15T05:54:32;13.00;;;8.13;;
8042;SDS011;4064;48.132;11.366;2024-01-15T05:56:58;8.43;;;6.03;;
8042;SDS011;4064;48.132;11.366;2024-01-15T05:59:23;8.30;;;6.30;;
8042;SDS011;4064;48.132;11.366;2024-01-15T06:01:50;13.88;;;5.78;;
8042;SDS011;4064;48.132;11.366;2024-01-15T06:04:16;5.80;;;5.17;;
8042;SDS011;4064;48.132;11.366;2024-01-15T06:06:41;9.37;;;6.30;;
8042;SDS011;4064;48.132;11.366;2024-01-15T06:09:07;10.57;;;6.53;;
8042;SDS011;4064;48.132;11.366;2024-01-15T06:11:34;9.07;;;6.15;;
8042;SDS011;4064;48.132;11.366;2024-01-15T06:13:59;9.50;;;7.13;;
8042;SDS011;4064;48.132;11.366;2024-01-15T06:16:29;10.60;;;7.07;;
8042;SDS011;4064;48.132;11.366;2024-01-15T06:18:55;10.65;;;6.95;;
8042;SDS011;4064;48.132;11.366;2024-01-15T06:21:21;6.77;;;5.80;;
8042;SDS011;4064;48.132;11.366;2024-01-15T06:23:46;7.10;;;5.40;;
8042;SDS011;4064;48.132;11.366;2024-01-15T06:26:12;7.93;;;5.93;;
8042;SDS011;4064;48.132;11.366;2024-01-15T06:28:38;9.17;;;6.67;;
8042;SDS011;4064;48.132;11.366;2024-01-15T06:31:03;8.57;;;6.83;;
8042;SDS011;4064;48.132;11.366;2024-01-15T06:33:31;10.52;;;7.05;;
8042;SDS011;4064;48.132;11.366;2024-01-15T06:35:56;13.23;;;6.50;;
8042;SDS011;4064;48.132;11.366;2024-01-15T06:38:22;12.90;;;6.90;;
8042;SDS011;4064;48.132;11.366;2024-01-15T06:40:48;11.93;;;8.35;;
8042;SDS011;4064;48.132;11.366;2024-01-15T06:43:14;13.50;;;7.03;;
8042;SDS011;4064;48.132;11.366;2024-01-15T06:45:43;14.98;;;7.63;;
8042;SDS011;4064;48.132;11.366;2024-01-15T06:48:09;11.32;;;7.32;;
8042;SDS011;4064;48.132;11.366;2024-01-15T06:50:34;11.23;;;8.17;;
8042;SDS011;4064;48.132;11.366;2024-01-15T06:53:00;10.50;;;7.83;;
8042;SDS011;4064;48.132;11.366;2024-01-15T06:55:26;9.23;;;6.40;;
8042;SDS011;4064;48.132;11.366;2024-01-15T06:57:52;12.70;;;7.80;;
8042;SDS011;4064;48.132;11.366;2024-01-15T07:00:18;12.83;;;7.30;;
8042;SDS011;4064;48.132;11.366;2024-01-15T07:02:44;10.27;;;5.68;;
8042;SDS011;4064;48.132;11.366;2024-01-15T07:05:10;13.13;;;6.90;;
8042;SDS011;4064;48.132;11.366;2024-01-15T07:07:36;12.73;;;8.03;;
8042;SDS011;4064;48.132;11.366;2024-01-15T07:10:02;14.63;;;7.93;;
8042;SDS011;4064;48.132;11.366;2024-01-15T07:12:28;15.75;;;8.20;;
8042;SDS011;4064;48.132;11.366;2024-01-15T07:14:55;7.93;;;6.10;;
8042;SDS011;4064;48.132;11.366;2024-01-15T07:17:21;10.02;;;7.53;;
8042;SDS011;4064;48.132;11.366;2024-01-15T07:19:47;10.37;;;6.90;;
8042;SDS011;4064;48.132;11.366;2024-01-15T07:22:12;8.67;;;6.87;;
8042;SDS011;4064;48.132;11.366;2024-01-15T07:24:38;7.97;;;6.17;;
8042;SDS011;4064;48.132;11.366;2024-01-15T07:27:04;14.57;;;6.73;;
8042;SDS011;4064;48.132;11.366;2024-01-15T07:29:30;8.30;;;6.47;;
8042;SDS011;4064;48.132;11.366;2024-01-15T07:31:58;9.32;;;6.85;;
8042;SDS011;4064;48.132;11.366;2024-01-15T07:34:23;9.03;;;7.20;;
8042;SDS011;4064;48.132;11.366;2024-01-15T07:36:49;8.70;;;7.27;;
8042;SDS011;4064;48.132;11.366;2024-01-15T07:39:14;5.57;;;5.03;;
8042;SDS011;4064;48.132;11.366;2024-01-15T07:41:40;9.80;;;6.73;;
8042;SDS011;4064;48.132;11.366;2024-01-15T07:44:06;11.33;;;7.27;;
8042;SDS011;4064;48.132;11.366;2024-01-15T07:46:31;11.67;;;8.20;;
8042;SDS011;4064;48.132;11.366;2024-01-15T07:48:57;8.47;;;6.80;;
8042;SDS011;4064;48.132;11.366;2024-01-15T07:51:23;10.50;;;5.97;;
8042;SDS011;4064;48.132;11.366;2024-01-15T07:53:49;12.25;;;7.38;;
8042;SDS011;4064;48.132;11.366;2024-01-15T07:56:15;11.68;;;7.13;;
8042;SDS011;4064;48.132;11.366;2024-01-15T07:58:41;12.47;;;7.20;;
8042;SDS011;4064;48.132;11.366;2024-01-15T08:01:07;11.68;;;6.15;;
8042;SDS011;4064;48.132;11.366;2024-01-15T08:03:33;11.33;;;6.73;;
8042;SDS011;4064;48.132;11.366;2024-01-15T08:05:59;9.67;;;6.60;;
8042;SDS011;4064;48.132;11.366;2024-01-15T08:08:25;10.05;;;5.90;;
8042;SDS011;4064;48.132;11.366;2024-01-15T08:10:53;8.65;;;7.35;;
8042;SDS011;4064;48.132;11.366;2024-01-15T08:13:19;16.17;;;7.50;;
8042;SDS011;4064;48.132;11.366;2024-01-15T08:15:45;9.00;;;5.70;;
8042;SDS011;4064;48.132;11.366;2024-01-15T08:18:11;10.43;;;7.57;;
8042;SDS011;4064;48.132;11.366;2024-01-15T08:20:36;9.70;;;6.70;;
8042;SDS011;4064;48.132;11.366;2024-01-15T08:23:02;9.60;;;7.23;;
8042;SDS011;4064;48.132;11.366;2024-01-15T08:25:28;8.25;;;5.55;;
8042;SDS011;4064;48.132;11.366;2024-01-15T08:27:55;12.07;;;7.15;;
8042;SDS011;4064;48.132;11.366;2024-01-15T08:30:21;10.27;;;7.82;;
8042;SDS011;4064;48.132;11.366;2024-01-15T08:32:49;8.85;;;6.68;;
8042;SDS011;4064;48.132;11.366;2024-01-15T08:35:15;10.00;;;6.73;;
8042;SDS011;4064;48.132;11.366;2024-01-15T08:37:41;12.30;;;6.90;;
8042;SDS011;4064;48.132;11.366;2024-01-15T08:40:06;13.60;;;8.27;;
8042;SDS011;4064;48.132;11.366;2024-01-15T08:42:32;10.97;;;7.30;;
8042;SDS011;4064;48.132;11.366;2024-01-15T08:44:58;11.00;;;7.30;;
8042;SDS011;4064;48.132;11.366;2024-01-15T08:47:23;13.87;;;7.53;;
8042;SDS011;4064;48.132;11.366;2024-01-15T08:49:51;10.85;;;6.25;;
8042;SDS011;4064;48.132;11.366;2024-01-15T08:52:16;12.50;;;7.43;;
8042;SDS011;4064;48.132;11.366;2024-01-15T08:54:42;10.40;;;6.60;;
8042;SDS011;4064;48.132;11.366;2024-01-15T08:57:07;11.13;;;7.43;;
8042;SDS011;4064;48.132;11.366;2024-01-15T08:59:33;9.73;;;7.60;;
8042;SDS011;4064;48.132;11.366;2024-01-15T09:01:58;9.57;;;6.40;;
8042;SDS011;4064;48.132;11.366;2024-01-15T09:04:24;10.03;;;6.83;;
8042;SDS011;4064;48.132;11.366;2024-01-15T09:06:51;10.93;;;6.40;;
8042;SDS011;4064;48.132;11.366;2024-01-15T09:09:17;8.57;;;6.37;;
8042;SDS011;4064;48.132;11.366;2024-01-15T09:11:43;9.43;;;7.20;;
8042;SDS011;4064;48.132;11.366;2024-01-15T09:14:10;12.48;;;6.25;;
8042;SDS011;4064;48.132;11.366;2024-01-15T09:16:35;9.70;;;6.03;;
8042;SDS011;4064;48.132;11.366;2024-01-15T09:19:01;9.73;;;6.20;;
8042;SDS011;4064;48.132;11.366;2024-01-15T09:21:28;8.15;;;6.07;;
8042;SDS011;4064;48.132;11.366;2024-01-15T09:23:54;9.90;;;6.43;;
8042;SDS011;4064;48.132;11.366;2024-01-15T09:26:19;9.80;;;6.93;;
8042;SDS011;4064;48.132;11.366;2024-01-15T09:28:45;8.30;;;5.30;;
8042;SDS011;4064;48.132;11.366;2024-01-15T09:31:10;10.77;;;6.87;;
8042;SDS011;4064;48.132;11.366;2024-01-15T09:33:36;6.67;;;5.33;;
8042;SDS011;4064;48.132;11.366;2024-01-15T09:36:02;9.77;;;5.80;;
8042;SDS011;4064;48.132;11.366;2024-01-15T09:38:29;9.52;;;5.93;;
8042;SDS011;4064;48.132;11.366;2024-01-15T09:40:56;7.38;;;5.95;;
8042;SDS011;4064;48.132;11.366;2024-01-15T09:43:21;6.83;;;5.40;;
8042;SDS011;4064;48.132;11.366;2024-01-15T09:45:49;6.47;;;5.33;;
8042;SDS011;4064;48.132;11.366;2024-01-15T09:48:15;6.53;;;4.70;;
8042;SDS011;4064;48.132;11.366;2024-01-15T09:50:41;7.85;;;5.43;;
8042;SDS011;4064;48.132;11.366;2024-01-15T09:53:08;8.88;;;5.15;;
8042;SDS011;4064;48.132;11.366;2024-01-15T09:55:35;10.25;;;6.03;;
8042;SDS011;4064;48.132;11.366;2024-01-15T09:58:03;7.63;;;4.68;;
8042;SDS011;4064;48.132;11.366;2024-01-15T10:00:29;8.17;;;5.40;;
8042;SDS011;4064;48.132;11.366;2024-01-15T10:02:58;7.60;;;4.60;;
8042;SDS011;4064;48.132;11.366;2024-01-15T10:05:26;8.88;;;4.78;;
8042;SDS011;4064;48.132;11.366;2024-01-15T10:07:53;7.33;;;6.03;;
8042;SDS011;4064;48.132;11.366;2024-01-15T10:10:21;5.55;;;4.75;;
8042;SDS011;4064;48.132;11.366;2024-01-15T10:12:47;10.80;;;4.57;;
8042;SDS011;4064;48.132;11.366;2024-01-15T10:15:14;6.55;;;5.05;;
8042;SDS011;4064;48.132;11.366;2024-01-15T10:17:39;6.90;;;4.63;;
8042;SDS011;4064;48.132;11.366;2024-01-15T10:20:11;9.13;;;4.60;;
8042;SDS011;4064;48.132;11.366;2024-01-15T10:22:40;7.95;;;5.05;;
8042;SDS011;4064;48.132;11.366;2024-01-15T10:25:09;7.93;;;5.20;;
8042;SDS011;4064;48.132;11.366;2024-01-15T10:27:36;6.10;;;4.53;;
8042;SDS011;4064;48.132;11.366;2024-01-15T10:30:01;6.87;;;4.60;;
8042;SDS011;4064;48.132;11.366;2024-01-15T10:32:28;5.43;;;4.43;;
8042;SDS011;4064;48.132;11.366;2024-01-15T10:34:54;7.50;;;4.90;;
8042;SDS011;4064;48.132;11.366;2024-01-15T10:37:19;5.45;;;4.18;;
8042;SDS011;4064;48.132;11.366;2024-01-15T10:39:48;7.63;;;5.50;;
8042;SDS011;4064;48.132;11.366;2024-01-15T10:42:14;6.55;;;4.47;;
8042;SDS011;4064;48.132;11.366;2024-01-15T10:44:41;6.23;;;5.43;;
8042;SDS011;4064;48.132;11.366;2024-01-15T10:47:08;7.75;;;4.97;;
8042;SDS011;4064;48.132;11.366;2024-01-15T10:49:34;10.13;;;6.10;;
8042;SDS011;4064;48.132;11.366;2024-01-15T10:52:00;6.20;;;4.50;;
8042;SDS011;4064;48.132;11.366;2024-01-15T10:54:29;8.07;;;5.57;;
8042;SDS011;4064;48.132;11.366;2024-01-15T10:56:58;6.10;;;4.60;;
8042;SDS011;4064;48.132;11.366;2024-01-15T10:59:23;5.75;;;4.93;;
8042;SDS011;4064;48.132;11.366;2024-01-15T11:01:50;6.30;;;4.90;;
8042;SDS011;4064;48.132;11.366;2024-01-15T11:04:22;6.32;;;4.85;;
8042;SDS011;4064;48.132;11.366;2024-01-15T11:06:52;10.23;;;5.43;;
8042;SDS011;4064;48.132;11.366;2024-01-15T11:09:18;8.30;;;5.72;;
8042;SDS011;4064;48.132;11.366;2024-01-15T11:11:45;6.87;;;5.23;;
8042;SDS011;4064;48.132;11.366;2024-01-15T11:14:33;6.68;;;4.63;;
8042;SDS011;4064;48.132;11.366;2024-01-15T11:16:59;6.43;;;4.88;;
8042;SDS011;4064;48.132;11.366;2024-01-15T11:19:25;6.57;;;5.07;;
8042;SDS011;4064;48.132;11.366;2024-01-15T11:21:51;7.45;;;4.80;;
8042;SDS011;4064;48.132;11.366;2024-01-15T11:24:33;7.85;;;4.95;;
8042;SDS011;4064;48.132;11.366;2024-01-15T11:27:01;7.53;;;4.22;;
8042;SDS011;4064;48.132;11.366;2024-01-15T11:31:58;5.30;;;4.70;;
8042;SDS011;4064;48.132;11.366;2024-01-15T11:34:49;6.38;;;4.32;;
8042;SDS011;4064;48.132;11.366;2024-01-15T11:37:21;4.93;;;4.40;;
8042;SDS011;4064;48.132;11.366;2024-01-15T11:39:49;9.85;;;5.63;;
8042;SDS011;4064;48.132;11.366;2024-01-15T11:42:16;9.25;;;4.85;;
8042;SDS011;4064;48.132;11.366;2024-01-15T11:44:43;6.45;;;5.07;;
8042;SDS011;4064;48.132;11.366;2024-01-15T11:47:10;8.10;;;5.10;;
8042;SDS011;4064;48.132;11.366;2024-01-15T11:52:24;5.85;;;3.95;;
8042;SDS011;4064;48.132;11.366;2024-01-15T11:57:41;6.90;;;4.35;;
8042;SDS011;4064;48.132;11.366;2024-01-15T12:00:16;6.00;;;4.45;;
8042;SDS011;4064;48.132;11.366;2024-01-15T12:02:44;6.47;;;4.30;;
8042;SDS011;4064;48.132;11.366;2024-01-15T12:05:13;4.20;;;3.80;;
8042;SDS011;4064;48.132;11.366;2024-01-15T12:07:39;5.00;;;3.83;;
8042;SDS011;4064;48.132;11.366;2024-01-15T12:10:12;4.47;;;3.95;;
8042;SDS011;4064;48.132;11.366;2024-01-15T12:15:28;5.70;;;3.58;;
8042;SDS011;4064;48.132;11.366;2024-01-15T12:17:55;6.05;;;3.40;;
8042;SDS011;4064;48.132;11.366;2024-01-15T12:20:25;5.70;;;4.03;;
8042;SDS011;4064;48.132;11.366;2024-01-15T12:23:00;5.32;;;3.47;;
8042;SDS011;4064;48.132;11.366;2024-01-15T12:25:28;4.50;;;4.05;;
8042;SDS011;4064;48.132;11.366;2024-01-15T12:27:55;5.07;;;3.90;;
8042;SDS011;4064;48.132;11.366;2024-01-15T12:30:21;3.75;;;3.22;;
8042;SDS011;4064;48.132;11.366;2024-01-15T12:32:47;5.17;;;3.60;;
8042;SDS011;4064;48.132;11.366;2024-01-15T12:35:13;3.97;;;3.20;;
8042;SDS011;4064;48.132;11.366;2024-01-15T12:37:41;4.00;;;3.60;;
8042;SDS011;4064;48.132;11.366;2024-01-15T12:40:08;5.68;;;3.15;;
8042;SDS011;4064;48.132;11.366;2024-01-15T12:42:41;4.30;;;3.90;;
8042;SDS011;4064;48.132;11.366;2024-01-15T12:45:08;4.93;;;3.95;;
8042;SDS011;4064;48.132;11.366;2024-01-15T12:47:37;6.10;;;3.58;;
8042;SDS011;4064;48.132;11.366;2024-01-15T12:50:11;6.00;;;4.05;;
8042;SDS011;4064;48.132;11.366;2024-01-15T12:52:38;5.38;;;4.03;;
8042;SDS011;4064;48.132;11.366;2024-01-15T12:55:07;5.60;;;3.80;;
8042;SDS011;4064;48.132;11.366;2024-01-15T12:57:34;5.50;;;3.90;;
8042;SDS011;4064;48.132;11.366;2024-01-15T13:00:01;5.40;;;4.30;;
8042;SDS011;4064;48.132;11.366;2024-01-15T13:02:31;5.30;;;4.18;;
8042;SDS011;4064;48.132;11.366;2024-01-15T13:04:59;12.18;;;3.40;;
8042;SDS011;4064;48.132;11.366;2024-01-15T13:07:25;7.22;;;4.78;;
8042;SDS011;4064;48.132;11.366;2024-01-15T13:09:51;5.70;;;3.33;;
8042;SDS011;4064;48.132;11.366;2024-01-15T13:12:19;7.38;;;4.28;;
8042;SDS011;4064;48.132;11.366;2024-01-15T13:14:48;7.50;;;4.45;;
8042;SDS011;4064;48.132;11.366;2024-01-15T13:17:15;5.20;;;3.85;;
8042;SDS011;4064;48.132;11.366;2024-01-15T13:19:41;6.37;;;4.87;;
8042;SDS011;4064;48.132;11.366;2024-01-15T13:22:07;4.07;;;3.67;;
8042;SDS011;4064;48.132;11.366;2024-01-15T13:24:34;4.25;;;3.42;;
8042;SDS011;4064;48.132;11.366;2024-01-15T13:27:01;5.03;;;4.07;;
8042;SDS011;4064;48.132;11.366;2024-01-15T13:29:29;4.90;;;4.40;;
8042;SDS011;4064;48.132;11.366;2024-01-15T13:31:55;5.83;;;4.10;;
8042;SDS011;4064;48.132;11.366;2024-01-15T13:34:20;4.83;;;4.10;;
8042;SDS011;4064;48.132;11.366;2024-01-15T13:36:47;5.22;;;4.05;;
8042;SDS011;4064;48.132;11.366;2024-01-15T13:39:12;6.57;;;4.50;;
8042;SDS011;4064;48.132;11.366;2024-01-15T13:41:38;7.90;;;4.50;;
8042;SDS011;4064;48.132;11.366;2024-01-15T13:44:04;6.40;;;4.50;;
8042;SDS011;4064;48.132;11.366;2024-01-15T13:46:30;7.75;;;4.90;;
8042;SDS011;4064;48.132;11.366;2024-01-15T13:48:59;6.33;;;4.57;;
8042;SDS011;4064;48.132;11.366;2024-01-15T13:51:25;5.70;;;5.15;;
8042;SDS011;4064;48.132;11.366;2024-01-15T13:53:51;7.80;;;4.77;;
8042;SDS011;4064;48.132;11.366;2024-01-15T13:56:21;5.97;;;4.25;;
8042;SDS011;4064;48.132;11.366;2024-01-15T13:58:47;9.90;;;4.80;;
8042;SDS011;4064;48.132;11.366;2024-01-15T14:01:17;5.25;;;4.40;;
8042;SDS011;4064;48.132;11.366;2024-01-15T14:03:42;5.83;;;4.33;;
8042;SDS011;4064;48.132;11.366;2024-01-15T14:06:08;7.50;;;4.60;;
8042;SDS011;4064;48.132;11.366;2024-01-15T14:08:35;6.30;;;4.40;;
8042;SDS011;4064;48.132;11.366;2024-01-15T14:11:05;6.43;;;4.82;;
8042;SDS011;4064;48.132;11.366;2024-01-15T14:13:35;5.78;;;4.13;;
8042;SDS011;4064;48.132;11.366;2024-01-15T14:16:01;6.65;;;4.57;;
8042;SDS011;4064;48.132;11.366;2024-01-15T14:18:27;5.80;;;5.07;;
8042;SDS011;4064;48.132;11.366;2024-01-15T14:20:53;5.13;;;4.63;;
8042;SDS011;4064;48.132;11.366;2024-01-15T14:23:19;4.93;;;4.43;;
8042;SDS011;4064;48.132;11.366;2024-01-15T14:25:46;5.90;;;4.55;;
8042;SDS011;4064;48.132;11.366;2024-01-15T14:28:11;5.80;;;3.73;;
8042;SDS011;4064;48.132;11.366;2024-01-15T14:30:37;5.50;;;4.07;;
8042;SDS011;4064;48.132;11.366;2024-01-15T14:33:03;6.40;;;4.43;;
8042;SDS011;4064;48.132;11.366;2024-01-15T14:35:29;7.90;;;4.47;;
8042;SDS011;4064;48.132;11.366;2024-01-15T14:37:55;6.70;;;4.37;;
8042;SDS011;4064;48.132;11.366;2024-01-15T14:40:25;4.70;;;4.30;;
8042;SDS011;4064;48.132;11.366;2024-01-15T14:42:51;20.35;;;14.52;;
8042;SDS011;4064;48.132;11.366;2024-01-15T14:45:17;10.10;;;4.93;;
8042;SDS011;4064;48.132;11.366;2024-01-15T14:47:44;5.72;;;4.15;;
8042;SDS011;4064;48.132;11.366;2024-01-15T14:50:09;5.47;;;4.60;;
8042;SDS011;4064;48.132;11.366;2024-01-15T14:52:36;7.03;;;4.40;;
8042;SDS011;4064;48.132;11.366;2024-01-15T14:55:02;5.78;;;5.13;;
8042;SDS011;4064;48.132;11.366;2024-01-15T14:57:28;6.13;;;4.75;;
8042;SDS011;4064;48.132;11.366;2024-01-15T14:59:54;5.53;;;4.13;;
8042;SDS011;4064;48.132;11.366;2024-01-15T15:02:20;8.63;;;4.83;;
8042;SDS011;4064;48.132;11.366;2024-01-15T15:04:45;4.50;;;4.07;;
8042;SDS011;4064;48.132;11.366;2024-01-15T15:07:11;5.50;;;3.80;;